Terminal Aerodrome Forecast
Issued by NWS

Home | Current Version | Previous Version | Text Only | Print | Product List | Glossary On
Versions: 1 2 3 4 5 6 7 8 9 10 11 12 13 14 15 16 17 18 19 20 21 22 23 24 25 26 27 28 29 30 31 32 33 34 35 36 37 38 39 40 41
000
FTUS43 KDMX 250912 AAA
TAFOTM
TAF AMD
KOTM 250912Z 2509/2606 23011KT P6SM OVC014
     FM251200 19009KT P6SM FEW012 BKN035
     FM251600 19016G21KT P6SM FEW015 BKN250
     FM260000 16011KT P6SM BKN250=

USA.gov is the U.S. government's official web portal to all federal, state and local government web resources and services.